Time;durP1;ratioP1;P1;durP2;ratioP2;P2;SDS_P1;SDS_P2;PMS_P1;PMS_P2;Temp;Humidity;BMP_temperature;BMP_pressure;BME280_temperature;BME280_humidity;BME280_pressure;Samples;Min_cycle;Max_cycle;Signal;HPM_P1;HPM_P2
2023/02/11 00:01:50;;;;;;;31.10;18.30;;;;;;;2.37;53.08;101870.30;108054;1254;73643;-70
2023/02/11 00:04:18;;;;;;;29.30;19.00;;;;;;;2.34;53.13;101872.35;107927;1254;72890;-70
2023/02/11 00:06:47;;;;;;;28.80;17.70;;;;;;;2.31;53.40;101871.12;107994;1255;61413;-71
2023/02/11 00:09:21;;;;;;;29.30;18.70;;;;;;;2.31;53.32;101872.34;108123;1254;59343;-71
2023/02/11 00:11:49;;;;;;;30.80;18.70;;;;;;;2.31;53.37;101873.05;107985;1256;73220;-71
2023/02/11 00:14:18;;;;;;;29.10;17.20;;;;;;;2.31;53.46;101867.98;107961;1254;71515;-70
2023/02/11 00:16:46;;;;;;;31.40;19.40;;;;;;;2.30;53.69;101864.66;108029;1254;73567;-71
2023/02/11 00:19:15;;;;;;;33.20;19.60;;;;;;;2.30;53.65;101859.48;107989;1254;61906;-71
2023/02/11 00:21:43;;;;;;;30.30;19.40;;;;;;;2.28;53.61;101861.20;107899;1254;60421;-71
2023/02/11 00:24:12;;;;;;;32.10;18.70;;;;;;;2.28;53.68;101855.73;108012;1253;73095;-70
2023/02/11 00:26:41;;;;;;;28.60;18.60;;;;;;;2.29;53.72;101856.34;107999;1254;73395;-71
2023/02/11 00:29:09;;;;;;;27.90;18.60;;;;;;;2.31;53.69;101857.40;108011;1253;71807;-71
2023/02/11 00:31:38;;;;;;;27.30;17.90;;;;;;;2.32;53.86;101855.67;107859;1254;60331;-70
2023/02/11 00:34:06;;;;;;;29.80;19.00;;;;;;;2.32;53.85;101860.23;108038;1254;61120;-70
2023/02/11 00:36:36;;;;;;;29.00;18.40;;;;;;;2.32;53.79;101860.14;107988;1254;74820;-71
2023/02/11 00:39:05;;;;;;;28.00;18.10;;;;;;;2.29;54.03;101858.17;108075;1256;73676;-71
2023/02/11 00:41:35;;;;;;;31.00;19.10;;;;;;;2.27;54.03;101861.73;107907;1254;73491;-70
2023/02/11 00:44:04;;;;;;;31.50;19.30;;;;;;;2.23;54.25;101863.73;108000;1253;60402;-71
2023/02/11 00:46:33;;;;;;;30.80;19.10;;;;;;;2.24;54.24;101859.60;108096;1254;60301;-71
2023/02/11 00:49:02;;;;;;;30.10;19.00;;;;;;;2.25;54.28;101860.55;107966;1255;75171;-70
2023/02/11 00:51:30;;;;;;;30.60;19.40;;;;;;;2.24;54.35;101858.23;108003;1256;73094;-70
2023/02/11 00:53:59;;;;;;;33.00;20.20;;;;;;;2.22;54.39;101853.67;107883;1255;73874;-70
2023/02/11 00:56:27;;;;;;;33.40;19.50;;;;;;;2.21;54.46;101850.45;108015;1254;61443;-71
2023/02/11 00:58:56;;;;;;;29.50;18.80;;;;;;;2.20;54.43;101851.27;108058;1255;60380;-70
2023/02/11 01:01:25;;;;;;;29.60;18.60;;;;;;;2.18;54.55;101851.77;108038;1254;74628;-71
2023/02/11 01:03:53;;;;;;;29.50;18.90;;;;;;;2.21;54.61;101848.54;107977;1254;72531;-70
2023/02/11 01:06:23;;;;;;;31.70;19.10;;;;;;;2.22;54.63;101850.28;107960;1254;73984;-71
2023/02/11 01:08:52;;;;;;;29.70;18.50;;;;;;;2.21;54.52;101849.55;107944;1253;60354;-70
2023/02/11 01:11:20;;;;;;;30.20;18.40;;;;;;;2.20;54.85;101846.86;108130;1254;59374;-70
2023/02/11 01:13:49;;;;;;;31.40;19.40;;;;;;;2.19;54.98;101840.15;108057;1254;73539;-69
2023/02/11 01:16:17;;;;;;;30.50;18.70;;;;;;;2.15;54.89;101841.14;108110;1257;71843;-70
2023/02/11 01:18:46;;;;;;;31.10;18.60;;;;;;;2.12;55.07;101841.05;108071;1254;72677;-71
2023/02/11 01:21:17;;;;;;;32.50;18.60;;;;;;;2.09;55.05;101837.22;108146;1254;60736;-70
2023/02/11 01:23:46;;;;;;;31.40;18.70;;;;;;;2.07;55.48;101836.85;108261;1254;61439;-71
2023/02/11 01:26:14;;;;;;;33.70;19.50;;;;;;;2.03;55.61;101838.50;108150;1254;74246;-70
2023/02/11 01:28:43;;;;;;;30.20;18.70;;;;;;;2.02;55.75;101842.30;108184;1256;73046;-70
2023/02/11 01:31:11;;;;;;;30.30;18.20;;;;;;;2.00;55.93;101844.95;108128;1259;72514;-70
2023/02/11 01:33:40;;;;;;;28.90;18.30;;;;;;;1.97;56.09;101848.55;108085;1256;61091;-70
2023/02/11 01:36:10;;;;;;;30.30;18.30;;;;;;;1.96;56.13;101849.53;108200;1254;60250;-69
2023/02/11 01:38:39;;;;;;;29.90;18.60;;;;;;;1.96;56.36;101848.04;108036;1254;74840;-70
2023/02/11 01:41:10;;;;;;;30.10;19.00;;;;;;;1.96;56.38;101842.11;108249;1253;73399;-71
2023/02/11 01:43:41;;;;;;;33.60;19.60;;;;;;;1.96;56.52;101844.79;108246;1254;73814;-71
2023/02/11 01:46:28;;;;;;;31.70;18.80;;;;;;;1.96;56.52;101841.23;108145;1255;62397;-69
2023/02/11 01:49:06;;;;;;;31.90;19.00;;;;;;;1.98;56.80;101840.79;108174;1253;60038;-70
2023/02/11 01:51:46;;;;;;;33.50;18.20;;;;;;;1.98;56.87;101845.77;108263;1255;73799;-71
2023/02/11 01:57:26;;;;;;;30.30;19.00;;;;;;;1.95;57.31;101845.95;108246;1254;74006;-71
2023/02/11 02:00:35;;;;;;;28.30;18.70;;;;;;;2.04;57.29;101851.70;108035;1255;60687;-71
2023/02/11 02:03:07;;;;;;;29.40;18.00;;;;;;;2.01;57.45;101842.47;108040;1254;61545;-71
2023/02/11 02:05:41;;;;;;;29.50;17.60;;;;;;;2.00;57.69;101836.97;108151;1254;72914;-71
2023/02/11 02:08:32;;;;;;;30.30;18.00;;;;;;;1.99;57.55;101835.22;108162;1256;70608;-71
2023/02/11 02:11:06;;;;;;;32.20;18.70;;;;;;;1.99;57.80;101833.39;108290;1257;73265;-71
2023/02/11 02:13:38;;;;;;;;;;;;;;;1.99;57.80;101838.02;108192;1254;62424;-71
2023/02/11 02:16:10;;;;;;;33.40;18.70;;;;;;;1.98;58.01;101836.77;108164;1257;61410;-70
2023/02/11 02:18:42;;;;;;;29.30;17.50;;;;;;;2.00;58.15;101833.41;108193;1254;74837;-70
2023/02/11 02:21:45;;;;;;;30.50;17.90;;;;;;;2.03;58.19;101829.15;108009;1254;72864;-70
2023/02/11 02:24:26;;;;;;;30.60;18.10;;;;;;;2.06;58.27;101821.66;108172;1254;73600;-71
2023/02/11 02:27:00;;;;;;;29.40;18.90;;;;;;;2.07;58.20;101816.46;107975;1255;61934;-71
2023/02/11 02:30:03;;;;;;;28.70;17.70;;;;;;;2.10;58.24;101814.73;108129;1254;60526;-71
2023/02/11 02:32:42;;;;;;;29.80;18.40;;;;;;;2.16;58.47;101814.45;108198;1254;74297;-71
2023/02/11 02:35:41;;;;;;;30.90;18.50;;;;;;;2.17;58.42;101812.20;108143;1254;71746;-71
2023/02/11 02:38:20;;;;;;;31.20;18.20;;;;;;;2.18;58.47;101809.48;108212;1256;73883;-71
2023/02/11 02:40:51;;;;;;;29.40;18.10;;;;;;;2.19;58.37;101809.86;108128;1254;60323;-71
2023/02/11 02:43:20;;;;;;;28.60;17.90;;;;;;;2.21;58.49;101810.95;108084;1260;60460;-71
2023/02/11 02:45:48;;;;;;;29.80;18.30;;;;;;;2.24;58.61;101809.88;108249;1254;74759;-71
2023/02/11 02:48:32;;;;;;;31.90;18.30;;;;;;;2.25;58.52;101812.34;108224;1254;73669;-71
2023/02/11 02:51:06;;;;;;;31.00;18.00;;;;;;;2.24;58.54;101814.73;108022;1254;70758;-71
2023/02/11 02:53:53;;;;;;;31.80;18.20;;;;;;;2.23;58.58;101812.91;108151;1254;62256;-71
2023/02/11 02:56:44;;;;;;;33.80;18.90;;;;;;;2.21;58.68;101812.98;108236;1256;60873;-72
2023/02/11 02:59:27;;;;;;;31.80;18.10;;;;;;;2.20;58.73;101811.52;108279;1254;72371;-70
2023/02/11 03:02:07;;;;;;;31.30;17.90;;;;;;;2.21;58.79;101812.46;108170;1254;71822;-71
2023/02/11 03:04:51;;;;;;;31.90;18.50;;;;;;;2.19;58.79;101810.23;108244;1254;71811;-71
2023/02/11 03:07:23;;;;;;;33.20;19.10;;;;;;;2.16;58.83;101809.52;108252;1254;60429;-71
2023/02/11 03:09:57;;;;;;;32.50;19.80;;;;;;;2.13;58.89;101813.20;107898;1254;377607;-70
2023/02/11 03:12:26;;;;;;;34.10;19.20;;;;;;;2.14;59.06;101809.61;108101;1254;73893;-70
2023/02/11 03:14:55;;;;;;;31.60;18.90;;;;;;;2.12;58.95;101803.83;108165;1254;73972;-70
2023/02/11 03:17:24;;;;;;;30.50;17.70;;;;;;;2.09;59.09;101801.22;108071;1257;72771;-71
2023/02/11 03:19:52;;;;;;;30.70;17.90;;;;;;;2.08;59.31;101804.61;107894;1255;61365;-71
2023/02/11 03:22:32;;;;;;;31.50;18.50;;;;;;;2.09;59.24;101803.44;107820;1255;60239;-70
2023/02/11 03:25:01;;;;;;;30.90;17.90;;;;;;;2.05;59.39;101801.02;108118;1254;75095;-70
2023/02/11 03:27:40;;;;;;;33.00;19.60;;;;;;;2.05;59.36;101802.98;108105;1254;72687;-71
2023/02/11 03:30:08;;;;;;;34.40;19.90;;;;;;;2.07;59.49;101801.17;108147;1258;73560;-70
2023/02/11 03:32:39;;;;;;;32.10;18.50;;;;;;;2.09;59.36;101802.75;108207;1254;62566;-71
2023/02/11 03:35:18;;;;;;;31.10;19.20;;;;;;;2.10;59.44;101802.41;108293;1254;61096;-71
2023/02/11 03:37:58;;;;;;;37.10;20.10;;;;;;;2.15;59.56;101799.50;108101;1254;73308;-70
2023/02/11 03:40:28;;;;;;;33.00;19.60;;;;;;;2.19;59.55;101795.95;108201;1255;73750;-71
2023/02/11 03:42:59;;;;;;;33.10;20.40;;;;;;;2.22;59.48;101788.60;108263;1253;73591;-71
2023/02/11 03:45:27;;;;;;;33.50;19.80;;;;;;;2.24;59.47;101784.67;108159;1254;60455;-70
2023/02/11 03:48:10;;;;;;;31.60;18.70;;;;;;;2.25;59.57;101783.41;108055;1254;60319;-71
2023/02/11 03:50:39;;;;;;;31.70;18.70;;;;;;;2.24;59.37;101778.34;108107;1255;74993;-71
2023/02/11 03:53:07;;;;;;;31.90;19.20;;;;;;;2.26;59.36;101777.63;108374;1254;73301;-71
2023/02/11 03:55:36;;;;;;;34.10;19.30;;;;;;;2.27;59.44;101783.00;108062;1254;73635;-72
2023/02/11 03:58:06;;;;;;;29.10;18.40;;;;;;;2.30;59.56;101777.68;108113;1257;61176;-72
2023/02/11 04:00:36;;;;;;;31.80;19.10;;;;;;;2.34;59.39;101767.20;108191;1254;60424;-72
2023/02/11 04:03:05;;;;;;;36.40;20.10;;;;;;;2.37;59.59;101762.86;108249;1254;73011;-71
2023/02/11 04:05:34;;;;;;;34.10;19.90;;;;;;;2.40;59.46;101757.45;108256;1254;71934;-72
2023/02/11 04:08:03;;;;;;;35.10;20.30;;;;;;;2.43;59.51;101756.52;108091;1254;73728;-70
2023/02/11 04:10:34;;;;;;;32.50;19.50;;;;;;;2.48;59.43;101751.28;108234;1253;62606;-70
2023/02/11 04:13:02;;;;;;;35.20;19.80;;;;;;;2.52;59.39;101754.69;108109;1256;60427;-71
2023/02/11 04:15:31;;;;;;;35.30;20.20;;;;;;;2.50;59.54;101748.70;108261;1254;73846;-70
2023/02/11 04:18:02;;;;;;;33.10;20.30;;;;;;;2.51;59.27;101744.39;108114;1254;72214;-70
2023/02/11 04:20:31;;;;;;;33.20;20.30;;;;;;;2.53;59.45;101741.21;108199;1257;71987;-71
2023/02/11 04:22:59;;;;;;;31.70;18.30;;;;;;;2.55;59.36;101746.93;108084;1257;60584;-71
2023/02/11 04:25:28;;;;;;;38.00;20.40;;;;;;;2.56;59.45;101748.39;108086;1254;60398;-72
2023/02/11 04:27:56;;;;;;;37.30;20.40;;;;;;;2.56;59.41;101752.55;108141;1254;74015;-71
2023/02/11 04:30:25;;;;;;;33.40;19.60;;;;;;;2.59;59.51;101748.59;108136;1258;71016;-70
2023/02/11 04:32:54;;;;;;;33.10;19.50;;;;;;;2.61;59.56;101752.07;108105;1254;72114;-71
2023/02/11 04:35:22;;;;;;;34.20;19.50;;;;;;;2.59;59.59;101749.23;108188;1254;60338;-71
2023/02/11 04:37:51;;;;;;;34.70;19.30;;;;;;;2.61;59.64;101750.12;108343;1254;60290;-71
2023/02/11 04:40:19;;;;;;;33.90;19.40;;;;;;;2.65;59.60;101743.46;108048;1254;73589;-70
2023/02/11 04:42:48;;;;;;;38.20;20.30;;;;;;;2.70;59.46;101736.11;108107;1254;73938;-71
2023/02/11 04:45:16;;;;;;;36.60;20.20;;;;;;;2.72;59.58;101733.19;108193;1254;72520;-71
2023/02/11 04:47:45;;;;;;;39.30;21.40;;;;;;;2.72;59.57;101729.10;107967;1254;62392;-70
2023/02/11 04:50:13;;;;;;;36.10;20.70;;;;;;;2.71;59.36;101726.77;108052;1255;61498;-69
2023/02/11 04:52:41;;;;;;;38.30;21.20;;;;;;;2.71;59.32;101722.21;108085;1254;75070;-71
2023/02/11 04:55:11;;;;;;;37.30;21.00;;;;;;;2.74;59.35;101712.56;108103;1254;73196;-70
2023/02/11 04:57:39;;;;;;;36.00;21.20;;;;;;;2.77;59.31;101709.22;108114;1254;72890;-71
2023/02/11 05:00:09;;;;;;;39.20;21.90;;;;;;;2.82;59.27;101703.61;108286;1254;61445;-71
2023/02/11 05:02:38;;;;;;;42.20;22.20;;;;;;;2.86;59.13;101706.92;108008;1254;59455;-70
2023/02/11 05:05:06;;;;;;;37.10;21.30;;;;;;;2.90;59.02;101706.18;108335;1254;74054;-71
2023/02/11 05:07:35;;;;;;;36.40;20.20;;;;;;;2.91;58.99;101700.55;108213;1254;72380;-71
2023/02/11 05:10:03;;;;;;;39.40;22.90;;;;;;;2.95;58.97;101701.15;108280;1257;72948;-71
2023/02/11 05:12:32;;;;;;;39.10;21.90;;;;;;;2.98;58.74;101700.09;108250;1256;60312;-70
2023/02/11 05:15:01;;;;;;;36.90;21.30;;;;;;;3.00;58.58;101697.97;108052;1257;60527;-70
2023/02/11 05:17:30;;;;;;;38.80;21.00;;;;;;;3.02;58.58;101697.91;108096;1254;73773;-70
2023/02/11 05:19:58;;;;;;;36.30;21.70;;;;;;;3.02;58.53;101692.85;108218;1254;71682;-71
2023/02/11 05:22:26;;;;;;;34.60;19.90;;;;;;;3.05;58.47;101694.02;108125;1254;72030;-70
2023/02/11 05:24:55;;;;;;;34.30;20.10;;;;;;;3.07;58.33;101696.10;108244;1252;60502;-71
2023/02/11 05:27:23;;;;;;;31.30;19.80;;;;;;;3.09;58.33;101699.05;108287;1254;60322;-71
2023/02/11 05:29:52;;;;;;;34.90;19.80;;;;;;;3.09;58.21;101696.56;108276;1253;72911;-71
2023/02/11 05:32:20;;;;;;;34.80;20.20;;;;;;;3.06;58.08;101700.36;108335;1253;71494;-71
2023/02/11 05:34:48;;;;;;;34.10;19.90;;;;;;;3.08;58.07;101703.50;108206;1253;71259;-71
2023/02/11 05:37:17;;;;;;;34.10;20.40;;;;;;;3.08;57.98;101703.77;108118;1254;62411;-71
2023/02/11 05:39:45;;;;;;;32.40;19.30;;;;;;;3.07;57.89;101704.73;108187;1254;60380;-71
2023/02/11 05:42:13;;;;;;;33.90;19.50;;;;;;;3.05;57.86;101705.73;108159;1254;74348;-71
2023/02/11 05:44:42;;;;;;;35.60;19.80;;;;;;;3.05;57.81;101702.92;108177;1254;72962;-73
2023/02/11 05:47:11;;;;;;;37.30;21.20;;;;;;;3.08;57.84;101697.98;108094;1254;72485;-71
2023/02/11 05:49:40;;;;;;;33.90;19.20;;;;;;;3.11;57.73;101693.88;108078;1254;60373;-71
2023/02/11 05:52:08;;;;;;;35.30;20.30;;;;;;;3.13;57.62;101693.59;108103;1252;61529;-71
2023/02/11 05:54:37;;;;;;;33.80;19.40;;;;;;;3.16;57.62;101692.34;108252;1254;75260;-70
2023/02/11 05:57:05;;;;;;;30.60;17.30;;;;;;;3.19;57.59;101689.39;108163;1254;73767;-70
2023/02/11 05:59:35;;;;;;;32.20;18.40;;;;;;;3.22;57.30;101691.52;108204;1252;72916;-72
2023/02/11 06:02:04;;;;;;;31.50;18.90;;;;;;;3.32;57.22;101694.72;108262;1254;60384;-70
2023/02/11 06:04:33;;;;;;;30.00;17.50;;;;;;;3.42;56.82;101689.84;108610;1253;60441;-71
2023/02/11 06:07:04;;;;;;;31.20;18.60;;;;;;;3.48;56.81;101679.84;108333;1256;75005;-70
2023/02/11 06:09:33;;;;;;;30.60;18.30;;;;;;;3.51;56.61;101674.27;108214;1254;73489;-70
2023/02/11 06:12:01;;;;;;;31.60;18.90;;;;;;;3.56;56.43;101671.62;108121;1254;71653;-70
2023/02/11 06:14:33;;;;;;;35.50;20.20;;;;;;;3.62;56.51;101666.57;108172;1254;61908;-70
2023/02/11 06:17:02;;;;;;;34.90;19.00;;;;;;;3.66;56.19;101658.09;108165;1252;59480;-70
2023/02/11 06:19:35;;;;;;;31.90;19.40;;;;;;;3.72;56.11;101644.11;108313;1252;75040;-70
2023/02/11 06:22:03;;;;;;;32.20;20.00;;;;;;;3.79;56.14;101639.17;108216;1253;74283;-69
2023/02/11 06:24:32;;;;;;;37.10;20.60;;;;;;;3.85;56.10;101636.24;108246;1253;73327;-71
2023/02/11 06:27:21;;;;;;;32.70;20.20;;;;;;;3.88;55.84;101638.19;108128;1254;60465;-70
2023/02/11 06:29:51;;;;;;;32.20;19.60;;;;;;;3.89;55.71;101642.30;108178;1256;61162;-69
2023/02/11 06:32:20;;;;;;;36.00;20.90;;;;;;;3.81;55.61;101637.92;108094;1254;73770;-69
2023/02/11 06:35:08;;;;;;;33.40;19.80;;;;;;;3.71;55.85;101628.64;108149;1254;71765;-70
2023/02/11 06:37:41;;;;;;;34.60;19.30;;;;;;;3.84;55.60;101625.77;108201;1257;72963;-69
2023/02/11 06:40:10;;;;;;;34.00;21.40;;;;;;;3.91;55.39;101628.76;108136;1259;60898;-71
2023/02/11 06:42:38;;;;;;;37.90;20.40;;;;;;;3.98;55.34;101625.20;108171;1253;60243;-70
2023/02/11 06:45:11;;;;;;;26.30;16.60;;;;;;;4.06;55.34;101621.35;108167;1256;72660;-69
2023/02/11 06:47:41;;;;;;;30.90;19.10;;;;;;;4.14;55.14;101618.14;108525;1253;72840;-69
2023/02/11 06:50:11;;;;;;;33.40;19.40;;;;;;;4.19;54.90;101615.73;108283;1253;72321;-70
2023/02/11 06:52:40;;;;;;;32.90;19.10;;;;;;;4.26;54.82;101608.98;108234;1254;60777;-69
2023/02/11 06:55:09;;;;;;;33.70;19.50;;;;;;;4.33;54.65;101607.41;108325;1254;61222;-70
2023/02/11 06:57:37;;;;;;;29.80;17.90;;;;;;;4.39;54.45;101595.95;108319;1253;72585;-70
2023/02/11 07:00:07;;;;;;;30.70;18.60;;;;;;;4.45;54.16;101592.57;108302;1254;71093;-69
2023/02/11 07:02:38;;;;;;;32.80;19.60;;;;;;;4.51;54.08;101593.97;108331;1254;71969;-70
2023/02/11 07:05:06;;;;;;;31.70;18.20;;;;;;;4.58;53.97;101581.90;108188;1253;59903;-69
2023/02/11 07:07:35;;;;;;;31.20;18.90;;;;;;;4.67;53.81;101576.02;108344;1254;60319;-70
2023/02/11 07:10:07;;;;;;;31.90;17.50;;;;;;;4.62;53.87;101569.67;108375;1254;74748;-69
2023/02/11 07:12:39;;;;;;;31.70;17.50;;;;;;;4.61;53.61;101568.01;108276;1253;73306;-70
2023/02/11 07:15:08;;;;;;;28.50;17.10;;;;;;;4.59;53.32;101562.77;108239;1254;71792;-69
2023/02/11 07:17:36;;;;;;;31.20;18.20;;;;;;;4.62;53.28;101568.58;108280;1253;59253;-69
2023/02/11 07:20:05;;;;;;;28.40;17.60;;;;;;;4.67;53.13;101567.10;108293;1253;61581;-69
2023/02/11 07:22:34;;;;;;;25.80;16.80;;;;;;;4.73;53.13;101560.51;108242;1254;74006;-68
2023/02/11 07:25:03;;;;;;;29.60;18.00;;;;;;;4.82;52.84;101558.48;108310;1254;73519;-70
2023/02/11 07:27:33;;;;;;;27.40;16.50;;;;;;;4.87;52.72;101553.95;108261;1253;73671;-69
2023/02/11 07:30:01;;;;;;;31.20;17.60;;;;;;;4.92;52.53;101557.90;108258;1253;60411;-69
2023/02/11 07:32:33;;;;;;;28.60;17.20;;;;;;;5.00;52.36;101562.79;108276;1253;60322;-69
2023/02/11 07:35:03;;;;;;;28.50;16.10;;;;;;;5.01;52.10;101564.80;108312;1254;74780;-69
2023/02/11 07:37:33;;;;;;;26.50;16.10;;;;;;;5.02;52.06;101559.50;108260;1253;72238;-69
2023/02/11 07:40:03;;;;;;;27.50;15.30;;;;;;;5.05;51.89;101559.64;108297;1253;71618;-69
2023/02/11 07:42:32;;;;;;;25.00;14.80;;;;;;;5.08;51.46;101557.98;108243;1253;60638;-68
2023/02/11 07:45:01;;;;;;;23.10;14.60;;;;;;;5.06;51.27;101550.35;108203;1253;61289;-69
2023/02/11 07:47:29;;;;;;;28.90;14.70;;;;;;;4.96;51.33;101552.67;108272;1254;74762;-69
2023/02/11 07:49:58;;;;;;;26.20;14.80;;;;;;;4.90;51.47;101555.84;108285;1253;73885;-69
2023/02/11 07:52:30;;;;;;;26.20;15.60;;;;;;;4.86;51.41;101563.35;108287;1254;73671;-69
2023/02/11 07:54:59;;;;;;;27.70;15.60;;;;;;;4.76;51.65;101564.48;108341;1254;62072;-68
2023/02/11 07:57:30;;;;;;;27.40;16.80;;;;;;;4.61;52.04;101558.80;108297;1253;61206;-69
2023/02/11 07:59:59;;;;;;;28.70;16.20;;;;;;;4.53;52.63;101559.54;108195;1253;73107;-68
2023/02/11 08:02:27;;;;;;;30.30;17.60;;;;;;;4.39;53.11;101556.44;108306;1252;73577;-69
2023/02/11 08:04:55;;;;;;;29.70;17.10;;;;;;;4.30;53.44;101551.32;108287;1253;70890;-67
2023/02/11 08:07:24;;;;;;;31.40;16.40;;;;;;;4.24;53.60;101550.60;108346;1253;61220;-67
2023/02/11 08:09:54;;;;;;;29.30;17.10;;;;;;;4.15;54.01;101542.65;108348;1254;61388;-68
2023/02/11 08:12:23;;;;;;;32.80;17.20;;;;;;;4.12;54.09;101535.66;108335;1253;74589;-69
2023/02/11 08:14:52;;;;;;;30.70;17.70;;;;;;;4.13;54.18;101533.63;108313;1256;72004;-69
2023/02/11 08:17:20;;;;;;;29.40;16.20;;;;;;;4.13;54.22;101527.20;108333;1253;71494;-69
2023/02/11 08:19:49;;;;;;;31.30;18.00;;;;;;;4.15;54.35;101521.08;108360;1254;59477;-69
2023/02/11 08:22:17;;;;;;;32.20;17.90;;;;;;;4.18;54.34;101517.64;108338;1253;59090;-67
2023/02/11 08:24:45;;;;;;;28.70;16.30;;;;;;;4.27;54.40;101511.05;108233;1253;74529;-68
2023/02/11 08:27:14;;;;;;;27.50;16.20;;;;;;;4.37;54.30;101511.00;108119;1254;72722;-68
2023/02/11 08:29:43;;;;;;;31.20;17.90;;;;;;;4.43;54.16;101506.36;108268;1254;73575;-69
2023/02/11 08:32:14;;;;;;;28.80;17.20;;;;;;;4.48;54.08;101502.08;108224;1253;60339;-68
2023/02/11 08:34:42;;;;;;;33.50;17.80;;;;;;;4.58;54.06;101503.70;108145;1254;60354;-69
2023/02/11 08:37:11;;;;;;;32.30;17.20;;;;;;;4.62;53.91;101496.71;108134;1253;74164;-68
2023/02/11 08:39:39;;;;;;;30.80;17.70;;;;;;;4.67;53.84;101489.71;108133;1254;71781;-68
2023/02/11 08:42:07;;;;;;;31.40;17.40;;;;;;;4.74;53.88;101480.67;108132;1254;72108;-67
2023/02/11 08:44:36;;;;;;;32.20;17.30;;;;;;;4.79;53.79;101477.88;108236;1253;60287;-67
2023/02/11 08:47:05;;;;;;;32.60;18.30;;;;;;;4.79;53.86;101474.02;108299;1254;60256;-68
2023/02/11 08:49:34;;;;;;;31.70;18.00;;;;;;;4.78;53.86;101478.17;108294;1253;73907;-69
2023/02/11 08:52:03;;;;;;;30.30;17.00;;;;;;;4.81;54.05;101473.34;108278;1252;72973;-70
2023/02/11 08:54:33;;;;;;;33.60;17.60;;;;;;;4.88;53.86;101472.56;108298;1253;73236;-68
2023/02/11 08:57:02;;;;;;;32.00;18.20;;;;;;;4.89;53.91;101470.20;108304;1252;62094;-68
2023/02/11 08:59:30;;;;;;;31.30;17.70;;;;;;;4.86;54.03;101473.23;108271;1252;60296;-68
2023/02/11 09:01:59;;;;;;;32.00;18.50;;;;;;;4.82;54.05;101472.73;108228;1254;74853;-69
2023/02/11 09:04:27;;;;;;;35.90;19.90;;;;;;;4.78;54.21;101472.34;108398;1253;73059;-68
2023/02/11 09:06:56;;;;;;;31.00;17.90;;;;;;;4.77;54.42;101463.80;108126;1257;72581;-69
2023/02/11 09:09:24;;;;;;;32.70;19.90;;;;;;;4.86;54.47;101461.92;108175;1254;60611;-68
2023/02/11 09:11:56;;;;;;;33.80;18.50;;;;;;;4.94;54.38;101463.95;108258;1254;60351;-68
2023/02/11 09:14:24;;;;;;;32.10;19.00;;;;;;;5.01;54.29;101462.50;108324;1253;73078;-68
2023/02/11 09:16:52;;;;;;;34.10;19.60;;;;;;;5.00;54.14;101455.70;108298;1253;72481;-69
2023/02/11 09:19:24;;;;;;;35.00;19.70;;;;;;;4.95;54.25;101458.53;108165;1256;72658;-67
2023/02/11 09:21:53;;;;;;;33.90;19.80;;;;;;;5.00;54.25;101450.80;108159;1254;61202;-69
2023/02/11 09:24:21;;;;;;;37.00;20.50;;;;;;;5.00;54.37;101441.15;108090;1254;61285;-67
2023/02/11 09:26:49;;;;;;;33.00;19.00;;;;;;;5.01;54.35;101439.27;108033;1254;74968;-68
2023/02/11 09:29:18;;;;;;;31.80;18.40;;;;;;;5.06;54.46;101431.69;108146;1254;71005;-67
2023/02/11 09:31:47;;;;;;;34.70;19.80;;;;;;;5.13;54.39;101425.80;108001;1254;72417;-68
2023/02/11 09:34:16;;;;;;;32.20;19.90;;;;;;;5.18;54.38;101423.54;108184;1254;61214;-69
2023/02/11 09:36:44;;;;;;;34.60;19.80;;;;;;;5.24;54.36;101415.24;108025;1254;61417;-68
2023/02/11 09:39:17;;;;;;;33.00;19.50;;;;;;;5.33;54.46;101405.36;108241;1253;75450;-68
2023/02/11 09:42:09;;;;;;;33.00;19.90;;;;;;;5.36;54.29;101395.62;108055;1254;73689;-67
2023/02/11 09:44:38;;;;;;;36.30;20.70;;;;;;;5.37;54.22;101389.11;108308;1253;72525;-68
2023/02/11 09:47:27;;;;;;;35.20;20.80;;;;;;;5.39;54.25;101390.73;108180;1252;62151;-68
2023/02/11 09:49:59;;;;;;;38.50;22.70;;;;;;;5.34;54.21;101388.16;108293;1254;61307;-71
2023/02/11 09:53:01;;;;;;;39.70;22.60;;;;;;;5.26;54.35;101388.84;108348;1253;75376;-68
2023/02/11 09:55:36;;;;;;;34.90;20.90;;;;;;;5.23;54.69;101375.52;108154;1253;72790;-69
2023/02/11 09:58:12;;;;;;;35.20;22.40;;;;;;;5.14;54.83;101370.02;108290;1252;70893;-68
2023/02/11 10:00:51;;;;;;;34.20;22.20;;;;;;;5.02;55.26;101370.05;108264;1253;61106;-66
2023/02/11 10:03:46;;;;;;;37.10;21.60;;;;;;;5.02;55.62;101364.88;108368;1253;61122;-67
2023/02/11 10:06:23;;;;;;;39.90;22.60;;;;;;;5.07;55.68;101361.42;108325;1253;75863;-66
2023/02/11 10:09:01;;;;;;;35.50;21.50;;;;;;;5.14;55.90;101357.40;108322;1253;72834;-67
2023/02/11 10:11:48;;;;;;;38.40;23.70;;;;;;;5.16;56.07;101350.59;108294;1253;71991;-71
2023/02/11 10:14:46;;;;;;;35.20;21.50;;;;;;;5.12;56.23;101336.74;108283;1253;62158;-69
2023/02/11 10:17:23;;;;;;;38.60;23.10;;;;;;;5.14;56.50;101335.29;108313;1253;61001;-70
2023/02/11 10:19:54;;;;;;;39.00;23.70;;;;;;;5.22;56.71;101326.00;108369;1254;74848;-67
2023/02/11 10:22:36;;;;;;;38.90;24.00;;;;;;;5.30;56.64;101322.17;108274;1254;72768;-68
2023/02/11 10:25:26;;;;;;;41.40;25.20;;;;;;;5.34;56.64;101318.14;108260;1252;73889;-71
2023/02/11 10:27:57;;;;;;;39.00;25.20;;;;;;;5.34;56.84;101315.34;108009;1253;61086;-69
2023/02/11 10:30:36;;;;;;;38.50;24.40;;;;;;;5.40;56.75;101313.83;108332;1252;60568;-69
2023/02/11 10:33:10;;;;;;;40.70;23.70;;;;;;;5.43;56.62;101307.75;108319;1252;75857;-71
2023/02/11 10:35:42;;;;;;;41.00;25.50;;;;;;;5.38;56.80;101297.80;108291;1252;72748;-69
2023/02/11 10:38:11;;;;;;;35.60;23.40;;;;;;;5.40;56.87;101287.54;108138;1254;73930;-69
2023/02/11 10:40:40;;;;;;;37.20;23.20;;;;;;;5.39;56.83;101282.23;108275;1254;61452;-69
2023/02/11 10:43:16;;;;;;;41.10;26.80;;;;;;;5.45;57.01;101280.02;108225;1254;61150;-68
2023/02/11 10:45:51;;;;;;;40.10;24.60;;;;;;;5.48;56.91;101281.75;108155;1254;74132;-68
2023/02/11 10:48:40;;;;;;;38.40;23.80;;;;;;;5.49;56.68;101276.31;108198;1254;73006;-68
2023/02/11 10:51:11;;;;;;;38.90;24.80;;;;;;;5.53;56.57;101267.31;108216;1254;72845;-68
2023/02/11 10:53:41;;;;;;;37.80;24.20;;;;;;;5.59;56.62;101263.09;108151;1254;61121;-69
2023/02/11 10:56:25;;;;;;;41.70;25.50;;;;;;;5.66;56.26;101264.96;108226;1254;61183;-68
2023/02/11 10:58:57;;;;;;;38.90;24.30;;;;;;;5.65;56.08;101266.35;108234;1254;73949;-69
2023/02/11 11:01:45;;;;;;;39.80;24.10;;;;;;;5.56;56.09;101258.70;108169;1254;72497;-69
2023/02/11 11:04:28;;;;;;;40.20;25.30;;;;;;;5.52;56.22;101251.16;108141;1254;72067;-68
2023/02/11 11:07:21;;;;;;;38.80;23.90;;;;;;;5.59;56.37;101251.44;108204;1254;61083;-69
2023/02/11 11:09:52;;;;;;;;;;;;;;;5.64;56.18;101245.60;108070;1253;61250;-69
2023/02/11 11:12:27;;;;;;;42.00;24.90;;;;;;;5.63;56.21;101243.04;108137;1254;74837;-69
2023/02/11 11:15:00;;;;;;;39.70;25.30;;;;;;;5.62;56.51;101234.71;108167;1254;73918;-69
2023/02/11 11:17:33;;;;;;;39.30;24.70;;;;;;;5.62;56.56;101227.52;108133;1257;71872;-68
2023/02/11 11:20:19;;;;;;;38.30;24.30;;;;;;;5.62;56.69;101223.27;108189;1254;61884;-71
2023/02/11 11:22:48;;;;;;;39.10;25.00;;;;;;;5.66;56.59;101211.71;108084;1254;61115;-68
2023/02/11 11:25:26;;;;;;;39.00;24.50;;;;;;;5.69;56.37;101203.06;108218;1256;73585;-69
2023/02/11 11:27:56;;;;;;;37.00;23.90;;;;;;;5.71;56.30;101195.22;108085;1254;70888;-69
2023/02/11 11:30:39;;;;;;;38.30;23.10;;;;;;;5.66;56.32;101191.12;108137;1254;72095;-68
2023/02/11 11:33:39;;;;;;;42.10;26.30;;;;;;;5.63;56.40;101180.23;107975;1254;61218;-69
2023/02/11 11:36:10;;;;;;;37.50;24.60;;;;;;;5.70;56.52;101169.70;108020;1254;61363;-69